sensor_id;sensor_type;location;lat;lon;timestamp;P1;durP1;ratioP1;P2;durP2;ratioP2
35257;SDS011;21385;50.878;8.050;2022-09-14T00:01:49;4.28;;;3.47;;
35257;SDS011;21385;50.878;8.050;2022-09-14T00:04:16;3.20;;;2.90;;
35257;SDS011;21385;50.878;8.050;2022-09-14T00:06:43;7.30;;;3.63;;
35257;SDS011;21385;50.878;8.050;2022-09-14T00:09:16;8.85;;;4.20;;
35257;SDS011;21385;50.878;8.050;2022-09-14T00:11:45;4.32;;;3.50;;
35257;SDS011;21385;50.878;8.050;2022-09-14T00:14:11;3.50;;;3.22;;
35257;SDS011;21385;50.878;8.050;2022-09-14T00:16:38;3.47;;;3.17;;
35257;SDS011;21385;50.878;8.050;2022-09-14T00:19:06;5.78;;;3.72;;
35257;SDS011;21385;50.878;8.050;2022-09-14T00:21:39;4.20;;;3.55;;
35257;SDS011;21385;50.878;8.050;2022-09-14T00:24:06;4.63;;;3.47;;
35257;SDS011;21385;50.878;8.050;2022-09-14T00:26:33;3.60;;;3.35;;
35257;SDS011;21385;50.878;8.050;2022-09-14T00:28:59;3.90;;;3.50;;
35257;SDS011;21385;50.878;8.050;2022-09-14T00:31:28;3.35;;;3.05;;
35257;SDS011;21385;50.878;8.050;2022-09-14T00:33:54;3.72;;;2.90;;
35257;SDS011;21385;50.878;8.050;2022-09-14T00:36:21;3.55;;;3.03;;
35257;SDS011;21385;50.878;8.050;2022-09-14T00:38:50;4.85;;;2.92;;
35257;SDS011;21385;50.878;8.050;2022-09-14T00:41:17;3.35;;;2.95;;
35257;SDS011;21385;50.878;8.050;2022-09-14T00:46:19;4.20;;;3.78;;
35257;SDS011;21385;50.878;8.050;2022-09-14T00:48:45;7.03;;;3.80;;
35257;SDS011;21385;50.878;8.050;2022-09-14T00:51:11;4.65;;;4.10;;
35257;SDS011;21385;50.878;8.050;2022-09-14T00:53:38;5.72;;;4.80;;
35257;SDS011;21385;50.878;8.050;2022-09-14T00:56:04;5.80;;;5.20;;
35257;SDS011;21385;50.878;8.050;2022-09-14T00:58:30;4.93;;;4.50;;
35257;SDS011;21385;50.878;8.050;2022-09-14T01:00:55;7.45;;;5.20;;
35257;SDS011;21385;50.878;8.050;2022-09-14T01:03:22;5.80;;;4.70;;
35257;SDS011;21385;50.878;8.050;2022-09-14T01:08:32;11.33;;;4.90;;
35257;SDS011;21385;50.878;8.050;2022-09-14T01:14:00;5.90;;;4.97;;
35257;SDS011;21385;50.878;8.050;2022-09-14T01:22:24;9.02;;;6.60;;
35257;SDS011;21385;50.878;8.050;2022-09-14T01:25:05;5.63;;;5.15;;
35257;SDS011;21385;50.878;8.050;2022-09-14T01:27:45;7.28;;;6.57;;
35257;SDS011;21385;50.878;8.050;2022-09-14T01:30:14;9.05;;;7.38;;
35257;SDS011;21385;50.878;8.050;2022-09-14T01:37:53;7.50;;;6.35;;
35257;SDS011;21385;50.878;8.050;2022-09-14T01:40:32;8.23;;;6.68;;
35257;SDS011;21385;50.878;8.050;2022-09-14T01:43:35;14.85;;;7.57;;
35257;SDS011;21385;50.878;8.050;2022-09-14T01:46:17;7.85;;;7.13;;
35257;SDS011;21385;50.878;8.050;2022-09-14T01:51:16;7.80;;;6.50;;
35257;SDS011;21385;50.878;8.050;2022-09-14T01:53:47;7.82;;;6.85;;
35257;SDS011;21385;50.878;8.050;2022-09-14T01:59:04;8.95;;;7.35;;
35257;SDS011;21385;50.878;8.050;2022-09-14T02:01:38;12.00;;;8.15;;
35257;SDS011;21385;50.878;8.050;2022-09-14T02:04:11;8.57;;;6.75;;
35257;SDS011;21385;50.878;8.050;2022-09-14T02:06:41;8.15;;;7.35;;
35257;SDS011;21385;50.878;8.050;2022-09-14T02:09:11;12.10;;;6.88;;
35257;SDS011;21385;50.878;8.050;2022-09-14T02:11:41;8.07;;;6.88;;
35257;SDS011;21385;50.878;8.050;2022-09-14T02:14:07;7.53;;;6.88;;
35257;SDS011;21385;50.878;8.050;2022-09-14T02:16:34;8.80;;;7.63;;
35257;SDS011;21385;50.878;8.050;2022-09-14T02:18:59;10.48;;;7.13;;
35257;SDS011;21385;50.878;8.050;2022-09-14T02:21:27;7.45;;;6.72;;
35257;SDS011;21385;50.878;8.050;2022-09-14T02:23:55;10.40;;;7.15;;
35257;SDS011;21385;50.878;8.050;2022-09-14T02:26:24;18.92;;;7.13;;
35257;SDS011;21385;50.878;8.050;2022-09-14T02:28:50;10.45;;;7.68;;
35257;SDS011;21385;50.878;8.050;2022-09-14T02:33:56;8.23;;;7.03;;
35257;SDS011;21385;50.878;8.050;2022-09-14T02:36:51;9.20;;;6.53;;
35257;SDS011;21385;50.878;8.050;2022-09-14T02:45:06;9.00;;;7.93;;
35257;SDS011;21385;50.878;8.050;2022-09-14T02:47:54;9.77;;;7.88;;
35257;SDS011;21385;50.878;8.050;2022-09-14T02:50:42;15.88;;;8.15;;
35257;SDS011;21385;50.878;8.050;2022-09-14T02:56:27;9.40;;;7.57;;
35257;SDS011;21385;50.878;8.050;2022-09-14T02:58:54;9.65;;;8.20;;
35257;SDS011;21385;50.878;8.050;2022-09-14T03:01:20;14.20;;;8.88;;
35257;SDS011;21385;50.878;8.050;2022-09-14T03:03:47;8.38;;;7.53;;
35257;SDS011;21385;50.878;8.050;2022-09-14T03:06:13;10.38;;;9.38;;
35257;SDS011;21385;50.878;8.050;2022-09-14T03:08:39;9.32;;;8.35;;
35257;SDS011;21385;50.878;8.050;2022-09-14T03:11:05;9.77;;;8.68;;
35257;SDS011;21385;50.878;8.050;2022-09-14T03:13:31;8.63;;;7.93;;
35257;SDS011;21385;50.878;8.050;2022-09-14T03:16:02;10.40;;;8.52;;
35257;SDS011;21385;50.878;8.050;2022-09-14T03:18:29;9.23;;;8.32;;
35257;SDS011;21385;50.878;8.050;2022-09-14T03:21:00;9.85;;;8.88;;
35257;SDS011;21385;50.878;8.050;2022-09-14T03:23:30;10.48;;;9.32;;
35257;SDS011;21385;50.878;8.050;2022-09-14T03:25:58;12.05;;;9.43;;
35257;SDS011;21385;50.878;8.050;2022-09-14T03:28:24;9.30;;;8.35;;
35257;SDS011;21385;50.878;8.050;2022-09-14T03:30:49;9.85;;;8.55;;
35257;SDS011;21385;50.878;8.050;2022-09-14T03:33:15;10.07;;;7.40;;
35257;SDS011;21385;50.878;8.050;2022-09-14T03:35:40;8.75;;;8.02;;
35257;SDS011;21385;50.878;8.050;2022-09-14T03:38:06;9.18;;;8.27;;
35257;SDS011;21385;50.878;8.050;2022-09-14T03:40:32;9.40;;;8.40;;
35257;SDS011;21385;50.878;8.050;2022-09-14T03:42:57;12.27;;;9.43;;
35257;SDS011;21385;50.878;8.050;2022-09-14T03:45:23;9.27;;;8.38;;
35257;SDS011;21385;50.878;8.050;2022-09-14T03:47:49;8.98;;;8.18;;
35257;SDS011;21385;50.878;8.050;2022-09-14T03:50:15;16.42;;;9.20;;
35257;SDS011;21385;50.878;8.050;2022-09-14T03:52:41;10.32;;;8.23;;
35257;SDS011;21385;50.878;8.050;2022-09-14T03:55:07;13.35;;;10.30;;
35257;SDS011;21385;50.878;8.050;2022-09-14T03:57:34;10.63;;;9.25;;
35257;SDS011;21385;50.878;8.050;2022-09-14T04:00:00;10.80;;;9.30;;
35257;SDS011;21385;50.878;8.050;2022-09-14T04:02:26;12.77;;;8.98;;
35257;SDS011;21385;50.878;8.050;2022-09-14T04:04:53;12.40;;;9.10;;
35257;SDS011;21385;50.878;8.050;2022-09-14T04:07:18;9.15;;;8.25;;
35257;SDS011;21385;50.878;8.050;2022-09-14T04:09:44;9.63;;;8.52;;
35257;SDS011;21385;50.878;8.050;2022-09-14T04:12:10;11.13;;;9.68;;
35257;SDS011;21385;50.878;8.050;2022-09-14T04:14:35;9.48;;;8.50;;
35257;SDS011;21385;50.878;8.050;2022-09-14T04:17:01;10.65;;;9.65;;
35257;SDS011;21385;50.878;8.050;2022-09-14T04:19:27;12.30;;;10.15;;
35257;SDS011;21385;50.878;8.050;2022-09-14T04:21:53;8.70;;;7.43;;
35257;SDS011;21385;50.878;8.050;2022-09-14T04:24:18;10.07;;;9.07;;
35257;SDS011;21385;50.878;8.050;2022-09-14T04:26:44;10.98;;;8.70;;
35257;SDS011;21385;50.878;8.050;2022-09-14T04:29:10;11.05;;;9.20;;
35257;SDS011;21385;50.878;8.050;2022-09-14T04:31:37;10.52;;;8.93;;
35257;SDS011;21385;50.878;8.050;2022-09-14T04:34:02;11.18;;;9.02;;
35257;SDS011;21385;50.878;8.050;2022-09-14T04:36:28;12.68;;;9.48;;
35257;SDS011;21385;50.878;8.050;2022-09-14T04:38:55;14.50;;;10.52;;
35257;SDS011;21385;50.878;8.050;2022-09-14T04:41:22;11.30;;;9.73;;
35257;SDS011;21385;50.878;8.050;2022-09-14T04:43:49;11.50;;;9.93;;
35257;SDS011;21385;50.878;8.050;2022-09-14T04:46:25;13.75;;;9.90;;
35257;SDS011;21385;50.878;8.050;2022-09-14T04:48:59;12.43;;;9.25;;
35257;SDS011;21385;50.878;8.050;2022-09-14T04:51:26;17.25;;;9.93;;
35257;SDS011;21385;50.878;8.050;2022-09-14T04:53:54;13.57;;;8.73;;
35257;SDS011;21385;50.878;8.050;2022-09-14T04:56:23;9.38;;;4.15;;
35257;SDS011;21385;50.878;8.050;2022-09-14T04:58:54;4.75;;;3.95;;
35257;SDS011;21385;50.878;8.050;2022-09-14T05:01:23;4.22;;;3.83;;
35257;SDS011;21385;50.878;8.050;2022-09-14T05:03:54;5.32;;;4.05;;
35257;SDS011;21385;50.878;8.050;2022-09-14T05:06:21;6.63;;;5.03;;
35257;SDS011;21385;50.878;8.050;2022-09-14T05:08:49;5.93;;;5.05;;
35257;SDS011;21385;50.878;8.050;2022-09-14T05:11:20;7.82;;;5.18;;
35257;SDS011;21385;50.878;8.050;2022-09-14T05:13:47;10.70;;;5.10;;
35257;SDS011;21385;50.878;8.050;2022-09-14T05:18:44;8.23;;;6.38;;
35257;SDS011;21385;50.878;8.050;2022-09-14T05:21:11;6.72;;;5.65;;
35257;SDS011;21385;50.878;8.050;2022-09-14T05:23:39;5.72;;;4.72;;
35257;SDS011;21385;50.878;8.050;2022-09-14T05:26:05;5.90;;;5.22;;
35257;SDS011;21385;50.878;8.050;2022-09-14T05:28:31;5.35;;;4.85;;
35257;SDS011;21385;50.878;8.050;2022-09-14T05:30:58;6.47;;;4.82;;
35257;SDS011;21385;50.878;8.050;2022-09-14T05:33:24;5.70;;;5.07;;
35257;SDS011;21385;50.878;8.050;2022-09-14T05:35:50;7.35;;;5.55;;
35257;SDS011;21385;50.878;8.050;2022-09-14T05:38:16;4.85;;;4.22;;
35257;SDS011;21385;50.878;8.050;2022-09-14T05:40:41;6.60;;;5.13;;
35257;SDS011;21385;50.878;8.050;2022-09-14T05:43:07;10.55;;;5.00;;
35257;SDS011;21385;50.878;8.050;2022-09-14T05:45:33;6.93;;;5.22;;
35257;SDS011;21385;50.878;8.050;2022-09-14T05:48:02;4.82;;;4.28;;
35257;SDS011;21385;50.878;8.050;2022-09-14T05:50:29;4.97;;;4.47;;
35257;SDS011;21385;50.878;8.050;2022-09-14T05:52:55;5.70;;;4.70;;
35257;SDS011;21385;50.878;8.050;2022-09-14T05:55:21;4.10;;;3.70;;
35257;SDS011;21385;50.878;8.050;2022-09-14T05:57:50;4.47;;;3.97;;
35257;SDS011;21385;50.878;8.050;2022-09-14T06:00:16;5.88;;;4.35;;
35257;SDS011;21385;50.878;8.050;2022-09-14T06:02:49;5.40;;;4.78;;
35257;SDS011;21385;50.878;8.050;2022-09-14T06:05:16;12.45;;;4.38;;
35257;SDS011;21385;50.878;8.050;2022-09-14T06:07:43;4.63;;;4.10;;
35257;SDS011;21385;50.878;8.050;2022-09-14T06:10:09;11.38;;;6.88;;
35257;SDS011;21385;50.878;8.050;2022-09-14T06:12:36;7.38;;;6.30;;
35257;SDS011;21385;50.878;8.050;2022-09-14T06:15:02;8.90;;;8.00;;
35257;SDS011;21385;50.878;8.050;2022-09-14T06:17:28;9.00;;;4.57;;
35257;SDS011;21385;50.878;8.050;2022-09-14T06:19:55;6.45;;;5.38;;
35257;SDS011;21385;50.878;8.050;2022-09-14T06:22:20;7.25;;;4.35;;
35257;SDS011;21385;50.878;8.050;2022-09-14T06:24:46;5.32;;;4.82;;
35257;SDS011;21385;50.878;8.050;2022-09-14T06:27:11;4.72;;;4.07;;
35257;SDS011;21385;50.878;8.050;2022-09-14T06:29:37;8.82;;;7.20;;
35257;SDS011;21385;50.878;8.050;2022-09-14T06:32:02;8.82;;;6.70;;
35257;SDS011;21385;50.878;8.050;2022-09-14T06:34:28;8.77;;;7.38;;
35257;SDS011;21385;50.878;8.050;2022-09-14T06:36:54;8.68;;;7.70;;
35257;SDS011;21385;50.878;8.050;2022-09-14T06:39:20;9.95;;;6.65;;
35257;SDS011;21385;50.878;8.050;2022-09-14T06:41:45;8.90;;;7.18;;
35257;SDS011;21385;50.878;8.050;2022-09-14T06:44:11;7.30;;;6.60;;
35257;SDS011;21385;50.878;8.050;2022-09-14T06:46:36;7.50;;;5.85;;
35257;SDS011;21385;50.878;8.050;2022-09-14T06:49:06;8.43;;;6.35;;
35257;SDS011;21385;50.878;8.050;2022-09-14T06:51:38;12.27;;;6.75;;
35257;SDS011;21385;50.878;8.050;2022-09-14T06:54:05;6.03;;;5.43;;
35257;SDS011;21385;50.878;8.050;2022-09-14T06:56:33;6.93;;;5.97;;
35257;SDS011;21385;50.878;8.050;2022-09-14T06:59:00;7.50;;;6.28;;
35257;SDS011;21385;50.878;8.050;2022-09-14T07:01:26;13.13;;;7.25;;
35257;SDS011;21385;50.878;8.050;2022-09-14T07:03:53;6.13;;;5.35;;
35257;SDS011;21385;50.878;8.050;2022-09-14T07:06:20;7.22;;;6.03;;
35257;SDS011;21385;50.878;8.050;2022-09-14T07:08:48;16.25;;;6.72;;
35257;SDS011;21385;50.878;8.050;2022-09-14T07:11:14;7.93;;;7.00;;
35257;SDS011;21385;50.878;8.050;2022-09-14T07:13:42;7.55;;;6.43;;
35257;SDS011;21385;50.878;8.050;2022-09-14T07:16:08;7.70;;;6.63;;
35257;SDS011;21385;50.878;8.050;2022-09-14T07:18:35;8.45;;;7.75;;
35257;SDS011;21385;50.878;8.050;2022-09-14T07:21:02;8.48;;;6.78;;
35257;SDS011;21385;50.878;8.050;2022-09-14T07:23:35;8.68;;;6.85;;
35257;SDS011;21385;50.878;8.050;2022-09-14T07:26:04;7.30;;;6.60;;
35257;SDS011;21385;50.878;8.050;2022-09-14T07:28:55;7.28;;;5.60;;
35257;SDS011;21385;50.878;8.050;2022-09-14T07:31:36;6.97;;;5.55;;
35257;SDS011;21385;50.878;8.050;2022-09-14T07:34:04;9.10;;;6.82;;
35257;SDS011;21385;50.878;8.050;2022-09-14T07:36:31;8.38;;;7.47;;
35257;SDS011;21385;50.878;8.050;2022-09-14T07:38:59;12.07;;;5.93;;
35257;SDS011;21385;50.878;8.050;2022-09-14T07:41:25;7.75;;;6.28;;
35257;SDS011;21385;50.878;8.050;2022-09-14T07:43:53;9.02;;;7.13;;
35257;SDS011;21385;50.878;8.050;2022-09-14T07:46:21;9.35;;;6.57;;
35257;SDS011;21385;50.878;8.050;2022-09-14T07:48:47;6.57;;;5.97;;
35257;SDS011;21385;50.878;8.050;2022-09-14T07:51:18;6.55;;;5.95;;
35257;SDS011;21385;50.878;8.050;2022-09-14T07:53:47;8.95;;;6.47;;
35257;SDS011;21385;50.878;8.050;2022-09-14T07:56:13;5.93;;;5.43;;
35257;SDS011;21385;50.878;8.050;2022-09-14T07:58:40;6.57;;;5.45;;
35257;SDS011;21385;50.878;8.050;2022-09-14T08:01:07;5.97;;;5.13;;
35257;SDS011;21385;50.878;8.050;2022-09-14T08:03:36;3.88;;;3.50;;
35257;SDS011;21385;50.878;8.050;2022-09-14T08:06:05;4.10;;;3.60;;
35257;SDS011;21385;50.878;8.050;2022-09-14T08:08:35;3.08;;;2.78;;
35257;SDS011;21385;50.878;8.050;2022-09-14T08:11:09;4.40;;;4.00;;
35257;SDS011;21385;50.878;8.050;2022-09-14T08:13:37;4.70;;;4.30;;
35257;SDS011;21385;50.878;8.050;2022-09-14T08:16:04;5.60;;;4.63;;
35257;SDS011;21385;50.878;8.050;2022-09-14T08:18:33;7.05;;;5.05;;
35257;SDS011;21385;50.878;8.050;2022-09-14T08:21:06;4.97;;;4.55;;
35257;SDS011;21385;50.878;8.050;2022-09-14T08:23:37;4.53;;;4.13;;
35257;SDS011;21385;50.878;8.050;2022-09-14T08:26:04;5.78;;;4.22;;
35257;SDS011;21385;50.878;8.050;2022-09-14T08:28:31;5.32;;;4.30;;
35257;SDS011;21385;50.878;8.050;2022-09-14T08:31:06;10.40;;;2.83;;
35257;SDS011;21385;50.878;8.050;2022-09-14T08:33:34;2.97;;;2.70;;
35257;SDS011;21385;50.878;8.050;2022-09-14T08:36:02;3.05;;;2.75;;
35257;SDS011;21385;50.878;8.050;2022-09-14T08:38:29;6.40;;;3.53;;
35257;SDS011;21385;50.878;8.050;2022-09-14T08:40:55;2.58;;;2.10;;
35257;SDS011;21385;50.878;8.050;2022-09-14T08:43:22;3.33;;;2.97;;
35257;SDS011;21385;50.878;8.050;2022-09-14T08:45:49;4.68;;;3.47;;
35257;SDS011;21385;50.878;8.050;2022-09-14T08:48:24;3.37;;;3.07;;
35257;SDS011;21385;50.878;8.050;2022-09-14T08:50:54;3.72;;;2.70;;
35257;SDS011;21385;50.878;8.050;2022-09-14T08:53:20;4.03;;;3.20;;
35257;SDS011;21385;50.878;8.050;2022-09-14T08:56:30;3.47;;;3.17;;
35257;SDS011;21385;50.878;8.050;2022-09-14T09:07:16;1.92;;;1.58;;
35257;SDS011;21385;50.878;8.050;2022-09-14T09:09:58;3.15;;;2.47;;
35257;SDS011;21385;50.878;8.050;2022-09-14T09:12:35;3.70;;;2.15;;
35257;SDS011;21385;50.878;8.050;2022-09-14T09:15:21;5.43;;;2.50;;
35257;SDS011;21385;50.878;8.050;2022-09-14T09:28:23;3.58;;;1.48;;
35257;SDS011;21385;50.878;8.050;2022-09-14T09:30:50;4.65;;;2.05;;
35257;SDS011;21385;50.878;8.050;2022-09-14T09:33:21;1.70;;;1.30;;
35257;SDS011;21385;50.878;8.050;2022-09-14T09:35:51;2.70;;;1.45;;
35257;SDS011;21385;50.878;8.050;2022-09-14T09:38:25;3.55;;;1.48;;
35257;SDS011;21385;50.878;8.050;2022-09-14T09:43:23;3.58;;;1.33;;
35257;SDS011;21385;50.878;8.050;2022-09-14T09:45:50;1.98;;;1.60;;
35257;SDS011;21385;50.878;8.050;2022-09-14T09:48:21;2.17;;;1.35;;
35257;SDS011;21385;50.878;8.050;2022-09-14T09:53:49;1.48;;;1.20;;
35257;SDS011;21385;50.878;8.050;2022-09-14T09:56:21;2.90;;;2.22;;
35257;SDS011;21385;50.878;8.050;2022-09-14T09:58:49;3.67;;;2.28;;
35257;SDS011;21385;50.878;8.050;2022-09-14T10:01:25;1.88;;;1.50;;
35257;SDS011;21385;50.878;8.050;2022-09-14T10:06:47;2.75;;;1.35;;
35257;SDS011;21385;50.878;8.050;2022-09-14T10:09:16;2.90;;;1.20;;
35257;SDS011;21385;50.878;8.050;2022-09-14T10:11:44;1.73;;;1.23;;
35257;SDS011;21385;50.878;8.050;2022-09-14T10:14:19;3.17;;;1.63;;
35257;SDS011;21385;50.878;8.050;2022-09-14T10:16:52;4.30;;;1.98;;
35257;SDS011;21385;50.878;8.050;2022-09-14T10:19:28;1.42;;;1.27;;
35257;SDS011;21385;50.878;8.050;2022-09-14T10:22:07;1.25;;;1.15;;
35257;SDS011;21385;50.878;8.050;2022-09-14T10:30:13;1.50;;;1.40;;
35257;SDS011;21385;50.878;8.050;2022-09-14T10:32:45;1.08;;;0.98;;
35257;SDS011;21385;50.878;8.050;2022-09-14T10:35:18;3.47;;;1.35;;
35257;SDS011;21385;50.878;8.050;2022-09-14T10:40:44;4.97;;;1.23;;
35257;SDS011;21385;50.878;8.050;2022-09-14T10:43:32;1.42;;;1.00;;
35257;SDS011;21385;50.878;8.050;2022-09-14T10:46:11;3.72;;;1.63;;
35257;SDS011;21385;50.878;8.050;2022-09-14T10:54:15;2.45;;;1.23;;
35257;SDS011;21385;50.878;8.050;2022-09-14T11:04:52;4.03;;;1.35;;
35257;SDS011;21385;50.878;8.050;2022-09-14T11:15:28;2.38;;;1.35;;
35257;SDS011;21385;50.878;8.050;2022-09-14T11:19:00;1.30;;;1.08;;
35257;SDS011;21385;50.878;8.050;2022-09-14T11:21:37;0.65;;;0.65;;
35257;SDS011;21385;50.878;8.050;2022-09-14T11:26:39;0.95;;;0.80;;
35257;SDS011;21385;50.878;8.050;2022-09-14T11:34:51;2.70;;;0.80;;
35257;SDS011;21385;50.878;8.050;2022-09-14T11:37:42;1.10;;;0.93;;
35257;SDS011;21385;50.878;8.050;2022-09-14T11:42:55;0.73;;;0.73;;
35257;SDS011;21385;50.878;8.050;2022-09-14T11:48:15;2.95;;;0.70;;
35257;SDS011;21385;50.878;8.050;2022-09-14T11:50:45;1.35;;;0.98;;
35257;SDS011;21385;50.878;8.050;2022-09-14T11:53:15;1.40;;;0.70;;
35257;SDS011;21385;50.878;8.050;2022-09-14T11:55:46;0.70;;;0.70;;
35257;SDS011;21385;50.878;8.050;2022-09-14T11:58:18;2.40;;;1.33;;
35257;SDS011;21385;50.878;8.050;2022-09-14T12:01:00;1.42;;;0.98;;
35257;SDS011;21385;50.878;8.050;2022-09-14T12:03:51;2.13;;;1.10;;
35257;SDS011;21385;50.878;8.050;2022-09-14T12:11:40;1.58;;;1.20;;
35257;SDS011;21385;50.878;8.050;2022-09-14T12:14:14;1.48;;;1.13;;
35257;SDS011;21385;50.878;8.050;2022-09-14T12:17:19;2.80;;;1.67;;
35257;SDS011;21385;50.878;8.050;2022-09-14T12:19:47;1.47;;;1.10;;
35257;SDS011;21385;50.878;8.050;2022-09-14T12:27:35;1.58;;;1.25;;
35257;SDS011;21385;50.878;8.050;2022-09-14T12:30:32;1.40;;;1.10;;
35257;SDS011;21385;50.878;8.050;2022-09-14T12:33:00;1.52;;;1.02;;
35257;SDS011;21385;50.878;8.050;2022-09-14T12:37:58;0.85;;;0.85;;
35257;SDS011;21385;50.878;8.050;2022-09-14T12:40:44;1.02;;;0.95;;
35257;SDS011;21385;50.878;8.050;2022-09-14T12:45:59;1.02;;;0.90;;
35257;SDS011;21385;50.878;8.050;2022-09-14T12:48:52;1.30;;;0.98;;
35257;SDS011;21385;50.878;8.050;2022-09-14T13:02:11;1.08;;;0.98;;
35257;SDS011;21385;50.878;8.050;2022-09-14T13:04:51;1.35;;;0.63;;
35257;SDS011;21385;50.878;8.050;2022-09-14T13:07:19;0.75;;;0.73;;
35257;SDS011;21385;50.878;8.050;2022-09-14T13:09:47;0.70;;;0.70;;
35257;SDS011;21385;50.878;8.050;2022-09-14T13:12:14;1.23;;;0.80;;
35257;SDS011;21385;50.878;8.050;2022-09-14T13:15:22;0.60;;;0.60;;
35257;SDS011;21385;50.878;8.050;2022-09-14T13:18:38;0.87;;;0.80;;
35257;SDS011;21385;50.878;8.050;2022-09-14T13:20:48;1.38;;;0.85;;
35257;SDS011;21385;50.878;8.050;2022-09-14T13:23:22;0.80;;;0.80;;
35257;SDS011;21385;50.878;8.050;2022-09-14T13:25:51;0.50;;;0.50;;
35257;SDS011;21385;50.878;8.050;2022-09-14T13:28:20;0.60;;;0.60;;
35257;SDS011;21385;50.878;8.050;2022-09-14T13:30:53;0.75;;;0.75;;
35257;SDS011;21385;50.878;8.050;2022-09-14T13:33:21;1.40;;;0.90;;
35257;SDS011;21385;50.878;8.050;2022-09-14T13:35:47;0.95;;;0.93;;
35257;SDS011;21385;50.878;8.050;2022-09-14T13:38:22;2.22;;;0.80;;
35257;SDS011;21385;50.878;8.050;2022-09-14T13:40:50;1.50;;;0.95;;
35257;SDS011;21385;50.878;8.050;2022-09-14T13:43:19;2.03;;;1.30;;
35257;SDS011;21385;50.878;8.050;2022-09-14T13:45:46;0.60;;;0.60;;
35257;SDS011;21385;50.878;8.050;2022-09-14T13:48:14;5.20;;;1.00;;
35257;SDS011;21385;50.878;8.050;2022-09-14T13:50:44;1.10;;;0.70;;
35257;SDS011;21385;50.878;8.050;2022-09-14T13:56:15;1.02;;;0.70;;
35257;SDS011;21385;50.878;8.050;2022-09-14T13:59:16;4.53;;;0.88;;
35257;SDS011;21385;50.878;8.050;2022-09-14T14:04:20;1.13;;;0.55;;
35257;SDS011;21385;50.878;8.050;2022-09-14T14:07:00;1.20;;;0.68;;
35257;SDS011;21385;50.878;8.050;2022-09-14T14:09:36;1.17;;;0.60;;
35257;SDS011;21385;50.878;8.050;2022-09-14T14:12:06;0.70;;;0.40;;
35257;SDS011;21385;50.878;8.050;2022-09-14T14:14:34;7.43;;;0.88;;
35257;SDS011;21385;50.878;8.050;2022-09-14T14:17:10;0.43;;;0.43;;
35257;SDS011;21385;50.878;8.050;2022-09-14T14:19:53;0.30;;;0.30;;
35257;SDS011;21385;50.878;8.050;2022-09-14T14:22:27;0.40;;;0.35;;
35257;SDS011;21385;50.878;8.050;2022-09-14T14:24:55;0.93;;;0.30;;
35257;SDS011;21385;50.878;8.050;2022-09-14T14:29:52;0.10;;;0.10;;
35257;SDS011;21385;50.878;8.050;2022-09-14T14:32:18;0.20;;;0.20;;
35257;SDS011;21385;50.878;8.050;2022-09-14T14:34:43;0.13;;;0.13;;
35257;SDS011;21385;50.878;8.050;2022-09-14T14:37:09;0.20;;;0.20;;
35257;SDS011;21385;50.878;8.050;2022-09-14T14:39:34;0.50;;;0.30;;
35257;SDS011;21385;50.878;8.050;2022-09-14T14:42:00;1.85;;;0.40;;
35257;SDS011;21385;50.878;8.050;2022-09-14T14:44:27;1.42;;;0.20;;
35257;SDS011;21385;50.878;8.050;2022-09-14T14:46:54;0.20;;;0.20;;
35257;SDS011;21385;50.878;8.050;2022-09-14T14:49:20;1.48;;;0.20;;
35257;SDS011;21385;50.878;8.050;2022-09-14T14:51:47;0.20;;;0.20;;
35257;SDS011;21385;50.878;8.050;2022-09-14T14:54:14;0.20;;;0.15;;
35257;SDS011;21385;50.878;8.050;2022-09-14T14:56:42;0.13;;;0.10;;
35257;SDS011;21385;50.878;8.050;2022-09-14T14:59:21;0.40;;;0.10;;
35257;SDS011;21385;50.878;8.050;2022-09-14T15:01:50;0.13;;;0.13;;
35257;SDS011;21385;50.878;8.050;2022-09-14T15:04:17;0.30;;;0.10;;
35257;SDS011;21385;50.878;8.050;2022-09-14T15:06:44;0.90;;;0.20;;
35257;SDS011;21385;50.878;8.050;2022-09-14T15:09:14;0.20;;;0.20;;
35257;SDS011;21385;50.878;8.050;2022-09-14T15:14:09;0.28;;;0.15;;
35257;SDS011;21385;50.878;8.050;2022-09-14T15:16:37;0.30;;;0.30;;
35257;SDS011;21385;50.878;8.050;2022-09-14T15:19:03;2.47;;;0.32;;
35257;SDS011;21385;50.878;8.050;2022-09-14T15:21:29;0.10;;;0.10;;
35257;SDS011;21385;50.878;8.050;2022-09-14T15:23:54;0.20;;;0.20;;
35257;SDS011;21385;50.878;8.050;2022-09-14T15:26:20;0.10;;;0.10;;
35257;SDS011;21385;50.878;8.050;2022-09-14T15:28:45;11.40;;;0.60;;
35257;SDS011;21385;50.878;8.050;2022-09-14T15:31:12;0.38;;;0.20;;
35257;SDS011;21385;50.878;8.050;2022-09-14T15:33:38;2.00;;;0.47;;
35257;SDS011;21385;50.878;8.050;2022-09-14T15:36:03;0.20;;;0.20;;
35257;SDS011;21385;50.878;8.050;2022-09-14T15:38:29;1.70;;;0.57;;
35257;SDS011;21385;50.878;8.050;2022-09-14T15:40:55;4.10;;;2.83;;
35257;SDS011;21385;50.878;8.050;2022-09-14T15:43:21;1.35;;;1.17;;
35257;SDS011;21385;50.878;8.050;2022-09-14T15:45:46;1.30;;;1.20;;
35257;SDS011;21385;50.878;8.050;2022-09-14T15:48:13;1.92;;;1.05;;
35257;SDS011;21385;50.878;8.050;2022-09-14T15:50:40;1.60;;;0.80;;
35257;SDS011;21385;50.878;8.050;2022-09-14T15:53:08;3.30;;;1.25;;
35257;SDS011;21385;50.878;8.050;2022-09-14T15:55:39;3.95;;;1.70;;
35257;SDS011;21385;50.878;8.050;2022-09-14T15:58:06;2.00;;;0.70;;
35257;SDS011;21385;50.878;8.050;2022-09-14T16:00:32;2.17;;;0.60;;
35257;SDS011;21385;50.878;8.050;2022-09-14T16:02:58;3.95;;;0.70;;
35257;SDS011;21385;50.878;8.050;2022-09-14T16:05:23;3.45;;;0.90;;
35257;SDS011;21385;50.878;8.050;2022-09-14T16:07:52;0.98;;;0.95;;
35257;SDS011;21385;50.878;8.050;2022-09-14T16:10:19;1.65;;;1.13;;
35257;SDS011;21385;50.878;8.050;2022-09-14T16:12:44;0.40;;;0.40;;
35257;SDS011;21385;50.878;8.050;2022-09-14T16:15:10;0.40;;;0.40;;
35257;SDS011;21385;50.878;8.050;2022-09-14T16:17:36;0.93;;;0.70;;
35257;SDS011;21385;50.878;8.050;2022-09-14T16:20:04;0.30;;;0.28;;
35257;SDS011;21385;50.878;8.050;2022-09-14T16:22:32;0.40;;;0.40;;
35257;SDS011;21385;50.878;8.050;2022-09-14T16:24:58;3.25;;;0.55;;
35257;SDS011;21385;50.878;8.050;2022-09-14T16:27:23;1.48;;;0.55;;
35257;SDS011;21385;50.878;8.050;2022-09-14T16:29:52;0.47;;;0.40;;
35257;SDS011;21385;50.878;8.050;2022-09-14T16:32:17;0.55;;;0.32;;
35257;SDS011;21385;50.878;8.050;2022-09-14T16:34:43;0.20;;;0.20;;
35257;SDS011;21385;50.878;8.050;2022-09-14T16:37:08;0.60;;;0.50;;
35257;SDS011;21385;50.878;8.050;2022-09-14T16:39:34;0.35;;;0.35;;
35257;SDS011;21385;50.878;8.050;2022-09-14T16:41:59;2.30;;;0.40;;
35257;SDS011;21385;50.878;8.050;2022-09-14T16:44:25;1.27;;;0.55;;
35257;SDS011;21385;50.878;8.050;2022-09-14T16:46:53;0.55;;;0.55;;
35257;SDS011;21385;50.878;8.050;2022-09-14T16:49:21;8.13;;;0.90;;
35257;SDS011;21385;50.878;8.050;2022-09-14T16:51:47;0.30;;;0.30;;
35257;SDS011;21385;50.878;8.050;2022-09-14T16:54:17;0.98;;;0.55;;
35257;SDS011;21385;50.878;8.050;2022-09-14T16:56:45;1.60;;;0.98;;
35257;SDS011;21385;50.878;8.050;2022-09-14T16:59:11;0.63;;;0.60;;
35257;SDS011;21385;50.878;8.050;2022-09-14T17:01:41;0.60;;;0.60;;
35257;SDS011;21385;50.878;8.050;2022-09-14T17:04:09;0.65;;;0.50;;
35257;SDS011;21385;50.878;8.050;2022-09-14T17:06:41;1.00;;;0.50;;
35257;SDS011;21385;50.878;8.050;2022-09-14T17:09:12;0.43;;;0.40;;
35257;SDS011;21385;50.878;8.050;2022-09-14T17:11:42;0.77;;;0.70;;
35257;SDS011;21385;50.878;8.050;2022-09-14T17:14:13;1.95;;;0.90;;
35257;SDS011;21385;50.878;8.050;2022-09-14T17:16:41;1.73;;;0.88;;
35257;SDS011;21385;50.878;8.050;2022-09-14T17:19:07;6.32;;;0.77;;
35257;SDS011;21385;50.878;8.050;2022-09-14T17:21:35;0.93;;;0.77;;
35257;SDS011;21385;50.878;8.050;2022-09-14T17:24:05;1.10;;;1.00;;
35257;SDS011;21385;50.878;8.050;2022-09-14T17:26:34;1.02;;;0.95;;
35257;SDS011;21385;50.878;8.050;2022-09-14T17:29:00;0.60;;;0.60;;